Terminal Aerodrome Forecast
Issued by NWS

Home | Current Version | Previous Version | Text Only | Print | Product List | Glossary On
Versions: 1 2 3 4 5 6 7 8 9 10 11 12 13
536
FTUS43 KJKL 271120
TAFSJS
TAF
KSJS 271120Z 2712/2812 17008KT P6SM BKN200
     FM271300 18008KT P6SM -SHRA BKN150
     FM271400 18007KT P6SM OVC090
     FM271600 21008KT P6SM VCSH OVC045
     FM272300 25007KT P6SM BKN090
     FM280900 00000KT P6SM FEW080
     FM281100 VRB03KT P6SM FEW110=

USA.gov is the U.S. government's official web portal to all federal, state and local government web resources and services.